sensor_id;sensor_type;location;lat;lon;timestamp;pressure;altitude;pressure_sealevel;temperature;humidity
35489;BME280;21602;55.670;37.578;2022-12-18T00:01:35;98634.06;;;-3.93;97.71
35489;BME280;21602;55.670;37.578;2022-12-18T00:04:02;98611.88;;;-3.97;97.54
35489;BME280;21602;55.670;37.578;2022-12-18T00:06:29;98620.97;;;-4.01;97.20
35489;BME280;21602;55.670;37.578;2022-12-18T00:08:55;98611.34;;;-4.09;97.33
35489;BME280;21602;55.670;37.578;2022-12-18T00:11:22;98600.13;;;-4.01;97.69
35489;BME280;21602;55.670;37.578;2022-12-18T00:13:48;98599.81;;;-3.98;97.77
35489;BME280;21602;55.670;37.578;2022-12-18T00:16:19;98597.03;;;-3.97;97.67
35489;BME280;21602;55.670;37.578;2022-12-18T00:18:46;98604.53;;;-4.02;97.49
35489;BME280;21602;55.670;37.578;2022-12-18T00:21:12;98589.88;;;-4.03;97.55
35489;BME280;21602;55.670;37.578;2022-12-18T00:23:39;98590.81;;;-4.04;97.69
35489;BME280;21602;55.670;37.578;2022-12-18T00:26:06;98583.97;;;-4.05;97.53
35489;BME280;21602;55.670;37.578;2022-12-18T00:28:32;98593.44;;;-4.04;97.52
35489;BME280;21602;55.670;37.578;2022-12-18T00:31:02;98577.66;;;-4.02;97.49
35489;BME280;21602;55.670;37.578;2022-12-18T00:33:27;98582.53;;;-3.99;97.53
35489;BME280;21602;55.670;37.578;2022-12-18T00:35:53;98587.72;;;-3.99;97.27
35489;BME280;21602;55.670;37.578;2022-12-18T00:38:20;98576.63;;;-4.09;96.91
35489;BME280;21602;55.670;37.578;2022-12-18T00:40:46;98576.13;;;-4.13;97.10
35489;BME280;21602;55.670;37.578;2022-12-18T00:43:11;98567.84;;;-4.17;97.32
35489;BME280;21602;55.670;37.578;2022-12-18T00:45:37;98547.47;;;-4.21;97.27
35489;BME280;21602;55.670;37.578;2022-12-18T00:48:03;98570.75;;;-4.20;97.61
35489;BME280;21602;55.670;37.578;2022-12-18T00:50:29;98548.44;;;-4.14;97.82
35489;BME280;21602;55.670;37.578;2022-12-18T00:52:54;98543.91;;;-4.12;97.59
35489;BME280;21602;55.670;37.578;2022-12-18T00:55:20;98544.22;;;-4.15;97.00
35489;BME280;21602;55.670;37.578;2022-12-18T00:57:46;98530.88;;;-4.12;97.34
35489;BME280;21602;55.670;37.578;2022-12-18T01:00:12;98528.91;;;-4.10;97.14
35489;BME280;21602;55.670;37.578;2022-12-18T01:02:38;98518.66;;;-4.03;97.39
35489;BME280;21602;55.670;37.578;2022-12-18T01:05:06;98521.25;;;-3.95;97.14
35489;BME280;21602;55.670;37.578;2022-12-18T01:07:32;98519.34;;;-3.93;96.62
35489;BME280;21602;55.670;37.578;2022-12-18T01:09:58;98510.34;;;-3.99;96.16
35489;BME280;21602;55.670;37.578;2022-12-18T01:12:25;98507.91;;;-4.00;95.94
35489;BME280;21602;55.670;37.578;2022-12-18T01:14:51;98507.09;;;-4.01;96.01
35489;BME280;21602;55.670;37.578;2022-12-18T01:17:19;98509.69;;;-4.01;95.91
35489;BME280;21602;55.670;37.578;2022-12-18T01:19:44;98503.34;;;-3.98;95.91
35489;BME280;21602;55.670;37.578;2022-12-18T01:22:10;98490.97;;;-3.96;95.65
35489;BME280;21602;55.670;37.578;2022-12-18T01:24:36;98498.16;;;-3.98;95.50
35489;BME280;21602;55.670;37.578;2022-12-18T01:27:02;98502.34;;;-4.05;95.58
35489;BME280;21602;55.670;37.578;2022-12-18T01:29:29;98506.13;;;-4.08;95.70
35489;BME280;21602;55.670;37.578;2022-12-18T01:31:55;98498.28;;;-4.00;96.16
35489;BME280;21602;55.670;37.578;2022-12-18T01:34:24;98508.56;;;-3.90;95.95
35489;BME280;21602;55.670;37.578;2022-12-18T01:36:49;98519.00;;;-3.90;95.21
35489;BME280;21602;55.670;37.578;2022-12-18T01:39:17;98506.75;;;-3.90;94.83
35489;BME280;21602;55.670;37.578;2022-12-18T01:41:43;98502.03;;;-3.94;94.99
35489;BME280;21602;55.670;37.578;2022-12-18T01:47:14;98492.59;;;-4.12;95.49
35489;BME280;21602;55.670;37.578;2022-12-18T01:49:41;98499.59;;;-4.12;95.83
35489;BME280;21602;55.670;37.578;2022-12-18T01:52:07;98499.25;;;-4.09;95.95
35489;BME280;21602;55.670;37.578;2022-12-18T01:54:32;98512.47;;;-4.02;96.19
35489;BME280;21602;55.670;37.578;2022-12-18T01:56:58;98489.97;;;-4.12;95.08
35489;BME280;21602;55.670;37.578;2022-12-18T01:59:24;98530.38;;;-4.07;95.50
35489;BME280;21602;55.670;37.578;2022-12-18T02:01:50;98489.97;;;-4.12;95.24
35489;BME280;21602;55.670;37.578;2022-12-18T02:04:22;98489.97;;;-4.12;95.54
35489;BME280;21602;55.670;37.578;2022-12-18T02:06:53;98478.88;;;-4.14;95.34
35489;BME280;21602;55.670;37.578;2022-12-18T02:09:26;98482.28;;;-4.13;95.26
35489;BME280;21602;55.670;37.578;2022-12-18T02:14:36;98494.22;;;-4.02;95.29
35489;BME280;21602;55.670;37.578;2022-12-18T02:27:32;98474.50;;;-3.97;94.14
35489;BME280;21602;55.670;37.578;2022-12-18T02:29:59;98484.09;;;-4.05;94.01
35489;BME280;21602;55.670;37.578;2022-12-18T02:32:37;98466.34;;;-4.10;93.85
35489;BME280;21602;55.670;37.578;2022-12-18T02:35:04;98473.00;;;-4.24;93.77
35489;BME280;21602;55.670;37.578;2022-12-18T02:37:31;98480.81;;;-4.24;94.29
35489;BME280;21602;55.670;37.578;2022-12-18T02:40:01;98493.53;;;-4.21;94.62
35489;BME280;21602;55.670;37.578;2022-12-18T02:42:30;98492.25;;;-4.17;94.61
35489;BME280;21602;55.670;37.578;2022-12-18T02:44:58;98480.81;;;-4.24;94.01
35489;BME280;21602;55.670;37.578;2022-12-18T02:47:27;98494.53;;;-4.22;94.36
35489;BME280;21602;55.670;37.578;2022-12-18T02:59:56;98493.84;;;-4.24;94.79
35489;BME280;21602;55.670;37.578;2022-12-18T03:02:26;98473.69;;;-4.22;94.93
35489;BME280;21602;55.670;37.578;2022-12-18T03:07:33;98467.16;;;-4.18;94.43
35489;BME280;21602;55.670;37.578;2022-12-18T03:10:00;98465.19;;;-4.24;94.56
35489;BME280;21602;55.670;37.578;2022-12-18T03:12:29;98477.72;;;-4.35;94.71
35489;BME280;21602;55.670;37.578;2022-12-18T03:17:26;98478.84;;;-4.38;94.93
35489;BME280;21602;55.670;37.578;2022-12-18T03:19:52;98479.50;;;-4.28;95.24
35489;BME280;21602;55.670;37.578;2022-12-18T03:22:19;98482.63;;;-4.24;94.61
35489;BME280;21602;55.670;37.578;2022-12-18T03:24:50;98496.28;;;-4.30;94.58
35489;BME280;21602;55.670;37.578;2022-12-18T03:27:17;98492.72;;;-4.29;94.36
35489;BME280;21602;55.670;37.578;2022-12-18T03:29:45;98476.09;;;-4.36;94.33
35489;BME280;21602;55.670;37.578;2022-12-18T03:32:18;98478.22;;;-4.32;94.64
35489;BME280;21602;55.670;37.578;2022-12-18T03:34:47;98463.84;;;-4.44;94.09
35489;BME280;21602;55.670;37.578;2022-12-18T03:37:16;98495.41;;;-4.55;94.18
35489;BME280;21602;55.670;37.578;2022-12-18T03:39:42;98495.84;;;-4.68;94.26
35489;BME280;21602;55.670;37.578;2022-12-18T03:42:21;98487.22;;;-4.69;95.00
35489;BME280;21602;55.670;37.578;2022-12-18T03:45:09;98472.72;;;-4.71;94.81
35489;BME280;21602;55.670;37.578;2022-12-18T03:52:57;98465.59;;;-4.69;94.79
35489;BME280;21602;55.670;37.578;2022-12-18T03:55:26;98490.13;;;-4.72;94.69
35489;BME280;21602;55.670;37.578;2022-12-18T03:57:58;98485.22;;;-4.75;94.90
35489;BME280;21602;55.670;37.578;2022-12-18T04:00:29;98479.88;;;-4.73;95.12
35489;BME280;21602;55.670;37.578;2022-12-18T04:03:04;98471.09;;;-4.72;94.03
35489;BME280;21602;55.670;37.578;2022-12-18T04:05:38;98478.41;;;-4.84;94.21
35489;BME280;21602;55.670;37.578;2022-12-18T04:08:06;98479.69;;;-4.80;94.76
35489;BME280;21602;55.670;37.578;2022-12-18T04:10:36;98473.88;;;-4.74;94.48
35489;BME280;21602;55.670;37.578;2022-12-18T04:13:02;98499.91;;;-4.74;94.10
35489;BME280;21602;55.670;37.578;2022-12-18T04:15:29;98510.63;;;-4.77;93.41
35489;BME280;21602;55.670;37.578;2022-12-18T04:17:57;98531.75;;;-4.80;93.68
35489;BME280;21602;55.670;37.578;2022-12-18T04:20:27;98521.47;;;-4.90;93.56
35489;BME280;21602;55.670;37.578;2022-12-18T04:22:52;98527.09;;;-5.02;94.03
35489;BME280;21602;55.670;37.578;2022-12-18T04:25:19;98541.28;;;-4.97;94.49
35489;BME280;21602;55.670;37.578;2022-12-18T04:28:06;98529.84;;;-5.04;94.78
35489;BME280;21602;55.670;37.578;2022-12-18T04:30:33;98529.00;;;-5.12;94.38
35489;BME280;21602;55.670;37.578;2022-12-18T04:32:59;98540.38;;;-5.13;95.66
35489;BME280;21602;55.670;37.578;2022-12-18T04:35:26;98550.31;;;-5.09;95.63
35489;BME280;21602;55.670;37.578;2022-12-18T04:37:52;98553.59;;;-5.07;95.95
35489;BME280;21602;55.670;37.578;2022-12-18T04:40:19;98546.59;;;-5.06;95.86
35489;BME280;21602;55.670;37.578;2022-12-18T04:42:46;98566.44;;;-5.05;95.96
35489;BME280;21602;55.670;37.578;2022-12-18T04:45:12;98568.75;;;-5.02;95.98
35489;BME280;21602;55.670;37.578;2022-12-18T04:47:37;98576.34;;;-5.09;96.31
35489;BME280;21602;55.670;37.578;2022-12-18T04:50:03;98553.72;;;-5.08;96.23
35489;BME280;21602;55.670;37.578;2022-12-18T04:52:28;98576.31;;;-5.17;96.01
35489;BME280;21602;55.670;37.578;2022-12-18T04:54:55;98584.25;;;-5.19;97.48
35489;BME280;21602;55.670;37.578;2022-12-18T04:57:20;98569.97;;;-5.15;96.92
35489;BME280;21602;55.670;37.578;2022-12-18T04:59:46;98570.31;;;-5.09;96.37
35489;BME280;21602;55.670;37.578;2022-12-18T05:02:11;98578.34;;;-5.03;96.29
35489;BME280;21602;55.670;37.578;2022-12-18T05:04:37;98563.13;;;-5.16;96.10
35489;BME280;21602;55.670;37.578;2022-12-18T05:07:03;98589.44;;;-5.19;96.01
35489;BME280;21602;55.670;37.578;2022-12-18T05:09:28;98574.97;;;-5.21;96.02
35489;BME280;21602;55.670;37.578;2022-12-18T05:11:54;98574.75;;;-5.28;95.98
35489;BME280;21602;55.670;37.578;2022-12-18T05:14:19;98563.53;;;-5.28;96.05
35489;BME280;21602;55.670;37.578;2022-12-18T05:16:46;98579.59;;;-5.33;96.27
35489;BME280;21602;55.670;37.578;2022-12-18T05:19:11;98589.69;;;-5.30;95.90
35489;BME280;21602;55.670;37.578;2022-12-18T05:21:37;98584.69;;;-5.23;95.93
35489;BME280;21602;55.670;37.578;2022-12-18T05:24:03;98595.09;;;-5.23;95.50
35489;BME280;21602;55.670;37.578;2022-12-18T05:26:28;98608.13;;;-5.23;95.23
35489;BME280;21602;55.670;37.578;2022-12-18T05:28:54;98617.19;;;-5.27;95.03
35489;BME280;21602;55.670;37.578;2022-12-18T05:31:20;98613.41;;;-5.33;94.84
35489;BME280;21602;55.670;37.578;2022-12-18T05:33:45;98620.25;;;-5.32;95.01
35489;BME280;21602;55.670;37.578;2022-12-18T05:36:11;98628.28;;;-5.25;94.69
35489;BME280;21602;55.670;37.578;2022-12-18T05:38:37;98634.50;;;-5.18;94.66
35489;BME280;21602;55.670;37.578;2022-12-18T05:41:03;98659.69;;;-5.19;94.59
35489;BME280;21602;55.670;37.578;2022-12-18T05:43:29;98645.06;;;-5.20;94.45
35489;BME280;21602;55.670;37.578;2022-12-18T05:45:55;98643.53;;;-5.30;94.48
35489;BME280;21602;55.670;37.578;2022-12-18T05:48:21;98652.31;;;-5.31;94.63
35489;BME280;21602;55.670;37.578;2022-12-18T05:50:49;98658.06;;;-5.37;94.91
35489;BME280;21602;55.670;37.578;2022-12-18T05:53:15;98642.25;;;-5.44;94.95
35489;BME280;21602;55.670;37.578;2022-12-18T05:55:42;98658.69;;;-5.44;94.90
35489;BME280;21602;55.670;37.578;2022-12-18T05:58:08;98668.00;;;-5.41;95.14
35489;BME280;21602;55.670;37.578;2022-12-18T06:00:34;98644.94;;;-5.36;95.24
35489;BME280;21602;55.670;37.578;2022-12-18T06:03:01;98661.88;;;-5.32;94.92
35489;BME280;21602;55.670;37.578;2022-12-18T06:05:33;98649.16;;;-5.35;94.88
35489;BME280;21602;55.670;37.578;2022-12-18T06:07:59;98662.56;;;-5.30;95.39
35489;BME280;21602;55.670;37.578;2022-12-18T06:10:25;98673.47;;;-5.44;94.59
35489;BME280;21602;55.670;37.578;2022-12-18T06:12:50;98683.69;;;-5.60;95.24
35489;BME280;21602;55.670;37.578;2022-12-18T06:15:16;98681.63;;;-5.57;95.93
35489;BME280;21602;55.670;37.578;2022-12-18T06:17:42;98687.38;;;-5.53;96.07
35489;BME280;21602;55.670;37.578;2022-12-18T06:20:08;98685.28;;;-5.50;95.84
35489;BME280;21602;55.670;37.578;2022-12-18T06:22:33;98680.22;;;-5.51;95.28
35489;BME280;21602;55.670;37.578;2022-12-18T06:25:02;98689.38;;;-5.47;95.37
35489;BME280;21602;55.670;37.578;2022-12-18T06:27:28;98694.56;;;-5.47;95.75
35489;BME280;21602;55.670;37.578;2022-12-18T06:29:54;98694.28;;;-5.44;95.32
35489;BME280;21602;55.670;37.578;2022-12-18T06:32:19;98709.72;;;-5.43;94.60
35489;BME280;21602;55.670;37.578;2022-12-18T06:34:45;98707.94;;;-5.42;94.75
35489;BME280;21602;55.670;37.578;2022-12-18T06:37:10;98713.47;;;-5.45;94.51
35489;BME280;21602;55.670;37.578;2022-12-18T06:39:36;98716.19;;;-5.47;94.22
35489;BME280;21602;55.670;37.578;2022-12-18T06:42:02;98728.53;;;-5.49;93.94
35489;BME280;21602;55.670;37.578;2022-12-18T06:44:28;98739.47;;;-5.45;94.14
35489;BME280;21602;55.670;37.578;2022-12-18T06:46:54;98749.28;;;-5.39;94.44
35489;BME280;21602;55.670;37.578;2022-12-18T06:49:23;98750.31;;;-5.32;93.28
35489;BME280;21602;55.670;37.578;2022-12-18T06:51:48;98736.72;;;-5.44;93.06
35489;BME280;21602;55.670;37.578;2022-12-18T06:54:14;98772.31;;;-5.44;92.94
35489;BME280;21602;55.670;37.578;2022-12-18T06:56:40;98776.41;;;-5.42;92.15
35489;BME280;21602;55.670;37.578;2022-12-18T06:59:05;98780.88;;;-5.34;91.68
35489;BME280;21602;55.670;37.578;2022-12-18T07:01:31;98774.84;;;-5.34;91.62
35489;BME280;21602;55.670;37.578;2022-12-18T07:03:57;98780.88;;;-5.34;91.60
35489;BME280;21602;55.670;37.578;2022-12-18T07:06:25;98777.69;;;-5.28;91.57
35489;BME280;21602;55.670;37.578;2022-12-18T07:08:51;98779.19;;;-5.25;90.91
35489;BME280;21602;55.670;37.578;2022-12-18T07:11:17;98773.00;;;-5.24;91.00
35489;BME280;21602;55.670;37.578;2022-12-18T07:13:44;98794.78;;;-5.25;90.45
35489;BME280;21602;55.670;37.578;2022-12-18T07:16:11;98780.81;;;-5.24;89.86
35489;BME280;21602;55.670;37.578;2022-12-18T07:38:28;98836.38;;;-5.16;88.76
35489;BME280;21602;55.670;37.578;2022-12-18T07:41:59;98825.25;;;-5.08;88.63
35489;BME280;21602;55.670;37.578;2022-12-18T08:20:52;98909.25;;;-4.88;87.24
35489;BME280;21602;55.670;37.578;2022-12-18T08:23:19;98913.31;;;-4.85;86.64
35489;BME280;21602;55.670;37.578;2022-12-18T08:25:44;98901.53;;;-5.07;86.97
35489;BME280;21602;55.670;37.578;2022-12-18T08:28:13;98919.59;;;-5.06;87.72
35489;BME280;21602;55.670;37.578;2022-12-18T08:30:39;98901.91;;;-5.02;88.16
35489;BME280;21602;55.670;37.578;2022-12-18T08:33:05;98909.72;;;-5.02;88.18
35489;BME280;21602;55.670;37.578;2022-12-18T08:35:36;98910.72;;;-4.85;88.50
35489;BME280;21602;55.670;37.578;2022-12-18T08:38:02;98918.78;;;-4.79;87.52
35489;BME280;21602;55.670;37.578;2022-12-18T08:40:28;98925.91;;;-4.81;87.96
35489;BME280;21602;55.670;37.578;2022-12-18T08:42:54;98922.19;;;-4.78;87.69
35489;BME280;21602;55.670;37.578;2022-12-18T08:45:39;98921.38;;;-4.79;87.61
35489;BME280;21602;55.670;37.578;2022-12-18T08:48:07;98923.47;;;-4.82;87.54
35489;BME280;21602;55.670;37.578;2022-12-18T08:50:33;98924.88;;;-4.88;87.67
35489;BME280;21602;55.670;37.578;2022-12-18T08:52:59;98926.06;;;-5.10;88.04
35489;BME280;21602;55.670;37.578;2022-12-18T08:55:24;98935.72;;;-4.93;88.86
35489;BME280;21602;55.670;37.578;2022-12-18T08:57:50;98917.56;;;-4.84;88.56
35489;BME280;21602;55.670;37.578;2022-12-18T09:00:16;98919.44;;;-4.77;88.34
35489;BME280;21602;55.670;37.578;2022-12-18T09:02:42;98918.34;;;-4.74;87.96
35489;BME280;21602;55.670;37.578;2022-12-18T09:05:07;98911.34;;;-4.74;87.78
35489;BME280;21602;55.670;37.578;2022-12-18T09:07:33;98924.16;;;-4.63;88.16
35489;BME280;21602;55.670;37.578;2022-12-18T09:10:11;98936.13;;;-4.70;88.24
35489;BME280;21602;55.670;37.578;2022-12-18T09:13:00;98947.06;;;-4.66;88.45
35489;BME280;21602;55.670;37.578;2022-12-18T09:15:26;98932.03;;;-4.72;88.37
35489;BME280;21602;55.670;37.578;2022-12-18T09:17:52;98950.03;;;-4.79;88.85
35489;BME280;21602;55.670;37.578;2022-12-18T09:20:18;98964.16;;;-4.81;88.93
35489;BME280;21602;55.670;37.578;2022-12-18T09:22:44;98972.94;;;-4.82;89.01
35489;BME280;21602;55.670;37.578;2022-12-18T09:25:15;98955.13;;;-4.87;88.72
35489;BME280;21602;55.670;37.578;2022-12-18T09:27:41;98977.41;;;-4.75;89.42
35489;BME280;21602;55.670;37.578;2022-12-18T09:30:07;98984.06;;;-4.63;89.01
35489;BME280;21602;55.670;37.578;2022-12-18T09:32:33;98974.47;;;-4.62;88.86
35489;BME280;21602;55.670;37.578;2022-12-18T09:35:07;98987.63;;;-4.64;88.68
35489;BME280;21602;55.670;37.578;2022-12-18T09:37:33;98991.59;;;-4.59;88.56
35489;BME280;21602;55.670;37.578;2022-12-18T09:39:58;98988.03;;;-4.58;88.56
35489;BME280;21602;55.670;37.578;2022-12-18T09:42:24;99003.66;;;-4.58;88.46
35489;BME280;21602;55.670;37.578;2022-12-18T09:44:51;98984.44;;;-4.57;88.92
35489;BME280;21602;55.670;37.578;2022-12-18T09:49:45;99010.22;;;-4.54;89.50
35489;BME280;21602;55.670;37.578;2022-12-18T09:52:25;98992.91;;;-4.46;89.45
35489;BME280;21602;55.670;37.578;2022-12-18T09:54:55;99004.91;;;-4.63;89.55
35489;BME280;21602;55.670;37.578;2022-12-18T09:57:23;99013.97;;;-4.67;89.76
35489;BME280;21602;55.670;37.578;2022-12-18T09:59:51;99011.31;;;-4.57;89.99
35489;BME280;21602;55.670;37.578;2022-12-18T10:02:20;99013.88;;;-4.47;89.92
35489;BME280;21602;55.670;37.578;2022-12-18T10:05:00;99005.00;;;-4.54;89.29
35489;BME280;21602;55.670;37.578;2022-12-18T10:07:32;99008.22;;;-4.70;90.29
35489;BME280;21602;55.670;37.578;2022-12-18T10:10:06;99021.41;;;-4.72;90.91
35489;BME280;21602;55.670;37.578;2022-12-18T10:12:40;99025.63;;;-4.71;91.00
35489;BME280;21602;55.670;37.578;2022-12-18T10:15:13;99005.34;;;-4.67;90.72
35489;BME280;21602;55.670;37.578;2022-12-18T10:17:55;98999.69;;;-4.63;90.50
35489;BME280;21602;55.670;37.578;2022-12-18T10:28:08;99013.88;;;-4.47;90.40
35489;BME280;21602;55.670;37.578;2022-12-18T10:30:36;99009.91;;;-4.51;90.92
35489;BME280;21602;55.670;37.578;2022-12-18T10:33:03;99005.66;;;-4.52;91.10
35489;BME280;21602;55.670;37.578;2022-12-18T10:35:29;99016.78;;;-4.50;90.79
35489;BME280;21602;55.670;37.578;2022-12-18T10:40:55;99024.63;;;-4.60;91.46
35489;BME280;21602;55.670;37.578;2022-12-18T10:43:26;99032.47;;;-4.60;91.03
35489;BME280;21602;55.670;37.578;2022-12-18T10:48:24;99044.06;;;-4.54;91.50
35489;BME280;21602;55.670;37.578;2022-12-18T10:50:50;99054.78;;;-4.57;91.12
35489;BME280;21602;55.670;37.578;2022-12-18T10:53:27;99029.63;;;-4.76;91.22
35489;BME280;21602;55.670;37.578;2022-12-18T10:55:54;99065.56;;;-4.80;92.46
35489;BME280;21602;55.670;37.578;2022-12-18T10:58:25;99071.44;;;-4.78;92.31
35489;BME280;21602;55.670;37.578;2022-12-18T11:06:06;99099.91;;;-4.67;91.92
35489;BME280;21602;55.670;37.578;2022-12-18T11:08:32;99118.47;;;-4.79;91.92
35489;BME280;21602;55.670;37.578;2022-12-18T11:10:58;99094.50;;;-4.83;92.99
35489;BME280;21602;55.670;37.578;2022-12-18T11:13:25;99101.72;;;-4.77;92.74
35489;BME280;21602;55.670;37.578;2022-12-18T11:15:52;99102.31;;;-4.83;92.22
35489;BME280;21602;55.670;37.578;2022-12-18T11:18:25;99088.16;;;-4.80;92.51
35489;BME280;21602;55.670;37.578;2022-12-18T11:21:11;99108.06;;;-4.89;92.72
35489;BME280;21602;55.670;37.578;2022-12-18T11:23:37;99100.94;;;-4.87;92.89
35489;BME280;21602;55.670;37.578;2022-12-18T11:26:10;99089.84;;;-4.79;92.33
35489;BME280;21602;55.670;37.578;2022-12-18T11:28:37;99101.91;;;-4.88;91.88
35489;BME280;21602;55.670;37.578;2022-12-18T11:33:35;99118.91;;;-4.84;92.09
35489;BME280;21602;55.670;37.578;2022-12-18T11:36:03;99122.44;;;-4.85;92.00
35489;BME280;21602;55.670;37.578;2022-12-18T11:38:31;99120.56;;;-4.93;92.30
35489;BME280;21602;55.670;37.578;2022-12-18T11:46:14;99121.19;;;-4.81;93.13
35489;BME280;21602;55.670;37.578;2022-12-18T11:48:52;99133.38;;;-4.72;93.03
35489;BME280;21602;55.670;37.578;2022-12-18T11:51:22;99137.34;;;-4.68;92.78
35489;BME280;21602;55.670;37.578;2022-12-18T11:53:51;99132.59;;;-4.82;92.62
35489;BME280;21602;55.670;37.578;2022-12-18T11:56:35;99149.44;;;-4.86;93.02
35489;BME280;21602;55.670;37.578;2022-12-18T12:01:48;99164.94;;;-4.94;93.81
35489;BME280;21602;55.670;37.578;2022-12-18T12:04:32;99155.19;;;-4.82;94.01
35489;BME280;21602;55.670;37.578;2022-12-18T12:12:16;99192.63;;;-4.74;92.59
35489;BME280;21602;55.670;37.578;2022-12-18T12:14:54;99199.06;;;-4.78;92.62
35489;BME280;21602;55.670;37.578;2022-12-18T12:17:40;99201.25;;;-4.83;92.27
35489;BME280;21602;55.670;37.578;2022-12-18T12:36:32;99233.44;;;-5.03;93.60
35489;BME280;21602;55.670;37.578;2022-12-18T12:39:03;99240.19;;;-5.01;94.25
35489;BME280;21602;55.670;37.578;2022-12-18T12:41:33;99230.31;;;-4.97;93.64
35489;BME280;21602;55.670;37.578;2022-12-18T12:44:19;99235.94;;;-4.92;93.03
35489;BME280;21602;55.670;37.578;2022-12-18T12:46:47;99247.03;;;-4.90;93.24
35489;BME280;21602;55.670;37.578;2022-12-18T12:49:15;99262.53;;;-4.98;93.19
35489;BME280;21602;55.670;37.578;2022-12-18T12:51:46;99269.94;;;-4.94;93.57
35489;BME280;21602;55.670;37.578;2022-12-18T12:54:16;99264.16;;;-4.87;93.81
35489;BME280;21602;55.670;37.578;2022-12-18T12:56:45;99273.06;;;-4.90;94.03
35489;BME280;21602;55.670;37.578;2022-12-18T12:59:30;99290.63;;;-4.82;94.29
35489;BME280;21602;55.670;37.578;2022-12-18T13:02:14;99281.44;;;-4.96;95.32
35489;BME280;21602;55.670;37.578;2022-12-18T13:04:51;99280.59;;;-4.97;95.70
35489;BME280;21602;55.670;37.578;2022-12-18T13:10:32;99293.47;;;-4.95;94.93
35489;BME280;21602;55.670;37.578;2022-12-18T13:13:03;99298.13;;;-4.89;94.37
35489;BME280;21602;55.670;37.578;2022-12-18T13:15:45;99300.88;;;-4.81;93.45
35489;BME280;21602;55.670;37.578;2022-12-18T13:23:27;99320.91;;;-4.81;93.70
35489;BME280;21602;55.670;37.578;2022-12-18T13:30:58;99327.75;;;-4.90;93.53
35489;BME280;21602;55.670;37.578;2022-12-18T13:35:53;99337.91;;;-4.87;93.78
35489;BME280;21602;55.670;37.578;2022-12-18T13:38:21;99343.50;;;-4.82;94.19
35489;BME280;21602;55.670;37.578;2022-12-18T13:45:45;99357.63;;;-4.75;93.68
35489;BME280;21602;55.670;37.578;2022-12-18T13:48:20;99353.53;;;-4.68;93.26
35489;BME280;21602;55.670;37.578;2022-12-18T13:50:49;99378.19;;;-4.72;93.22
35489;BME280;21602;55.670;37.578;2022-12-18T13:53:20;99379.84;;;-4.71;93.02
35489;BME280;21602;55.670;37.578;2022-12-18T13:55:47;99394.94;;;-4.65;93.22
35489;BME280;21602;55.670;37.578;2022-12-18T13:58:14;99399.88;;;-4.61;93.09
35489;BME280;21602;55.670;37.578;2022-12-18T14:00:43;99410.59;;;-4.55;92.98
35489;BME280;21602;55.670;37.578;2022-12-18T14:03:21;99412.22;;;-4.54;92.88
35489;BME280;21602;55.670;37.578;2022-12-18T14:05:55;99401.00;;;-4.54;93.14
35489;BME280;21602;55.670;37.578;2022-12-18T14:08:21;99423.91;;;-4.48;93.21
35489;BME280;21602;55.670;37.578;2022-12-18T14:10:48;99420.19;;;-4.55;93.40
35489;BME280;21602;55.670;37.578;2022-12-18T14:13:22;99424.28;;;-4.53;93.68
35489;BME280;21602;55.670;37.578;2022-12-18T14:15:49;99422.09;;;-4.67;93.96
35489;BME280;21602;55.670;37.578;2022-12-18T14:18:23;99425.66;;;-4.68;94.78
35489;BME280;21602;55.670;37.578;2022-12-18T14:20:49;99430.06;;;-4.59;94.74
35489;BME280;21602;55.670;37.578;2022-12-18T14:25:53;99436.22;;;-4.60;94.28
35489;BME280;21602;55.670;37.578;2022-12-18T14:28:19;99445.94;;;-4.62;94.50
35489;BME280;21602;55.670;37.578;2022-12-18T14:30:47;99464.16;;;-4.72;94.22
35489;BME280;21602;55.670;37.578;2022-12-18T14:33:14;99455.53;;;-4.72;94.17
35489;BME280;21602;55.670;37.578;2022-12-18T14:35:42;99462.25;;;-4.70;93.69
35489;BME280;21602;55.670;37.578;2022-12-18T14:41:00;99484.16;;;-4.72;92.02
35489;BME280;21602;55.670;37.578;2022-12-18T14:43:27;99481.28;;;-4.79;91.24
35489;BME280;21602;55.670;37.578;2022-12-18T14:45:53;99472.50;;;-4.78;90.84
35489;BME280;21602;55.670;37.578;2022-12-18T14:48:20;99493.88;;;-4.84;90.33
35489;BME280;21602;55.670;37.578;2022-12-18T14:50:57;99489.22;;;-4.80;90.37
35489;BME280;21602;55.670;37.578;2022-12-18T14:53:29;99488.81;;;-4.76;90.25
35489;BME280;21602;55.670;37.578;2022-12-18T14:56:00;99515.81;;;-4.77;89.92
35489;BME280;21602;55.670;37.578;2022-12-18T14:58:26;99513.22;;;-4.77;90.11
35489;BME280;21602;55.670;37.578;2022-12-18T15:00:52;99513.50;;;-4.70;90.01
35489;BME280;21602;55.670;37.578;2022-12-18T15:03:18;99523.09;;;-4.71;89.25
35489;BME280;21602;55.670;37.578;2022-12-18T15:05:45;99529.25;;;-4.81;89.12
35489;BME280;21602;55.670;37.578;2022-12-18T15:08:26;99528.41;;;-4.82;89.46
35489;BME280;21602;55.670;37.578;2022-12-18T15:10:53;99523.22;;;-4.82;89.45
35489;BME280;21602;55.670;37.578;2022-12-18T15:13:26;99540.47;;;-4.81;89.31
35489;BME280;21602;55.670;37.578;2022-12-18T15:15:52;99533.88;;;-4.85;89.59
35489;BME280;21602;55.670;37.578;2022-12-18T15:18:21;99530.72;;;-4.88;89.20
35489;BME280;21602;55.670;37.578;2022-12-18T15:20:58;99545.09;;;-4.84;89.31
35489;BME280;21602;55.670;37.578;2022-12-18T15:23:31;99546.22;;;-4.87;88.55
35489;BME280;21602;55.670;37.578;2022-12-18T15:26:03;99541.69;;;-4.85;88.75
35489;BME280;21602;55.670;37.578;2022-12-18T15:34:05;99549.44;;;-4.95;88.71
35489;BME280;21602;55.670;37.578;2022-12-18T15:36:26;99552.97;;;-5.05;88.74
35489;BME280;21602;55.670;37.578;2022-12-18T15:38:52;99553.59;;;-5.13;88.82
35489;BME280;21602;55.670;37.578;2022-12-18T15:41:19;99566.38;;;-5.10;88.59
35489;BME280;21602;55.670;37.578;2022-12-18T15:43:45;99563.91;;;-5.11;88.77
35489;BME280;21602;55.670;37.578;2022-12-18T15:46:12;99558.94;;;-5.15;88.77
35489;BME280;21602;55.670;37.578;2022-12-18T15:48:43;99560.97;;;-5.18;89.33
35489;BME280;21602;55.670;37.578;2022-12-18T15:51:28;99570.50;;;-5.07;89.67
35489;BME280;21602;55.670;37.578;2022-12-18T15:54:01;99577.03;;;-5.13;88.55
35489;BME280;21602;55.670;37.578;2022-12-18T15:56:29;99575.28;;;-5.12;88.91